Time;durP1;ratioP1;P1;durP2;ratioP2;P2;SDS_P1;SDS_P2;PMS_P1;PMS_P2;Temp;Humidity;BMP_temperature;BMP_pressure;BME280_temperature;BME280_humidity;BME280_pressure;Samples;Min_cycle;Max_cycle;Signal;HPM_P1;HPM_P2
2022/06/08 00:00:47;;;;;;;4.45;2.00;;;27.60;99.90;;;;;;1816823;78;21725;-73
2022/06/08 00:03:21;;;;;;;3.77;2.00;;;27.40;99.90;;;;;;1812540;78;21728;-74
2022/06/08 00:06:04;;;;;;;4.53;2.33;;;27.40;99.90;;;;;;1809879;78;21185;-72
2022/06/08 00:08:35;;;;;;;4.28;2.12;;;27.30;99.90;;;;;;1813137;78;21149;-74
2022/06/08 00:11:06;;;;;;;4.75;2.10;;;27.30;99.90;;;;;;1780626;79;21077;-72
2022/06/08 00:13:39;;;;;;;5.72;2.15;;;27.40;99.90;;;;;;1783420;79;21160;-73
2022/06/08 00:16:11;;;;;;;6.53;2.35;;;27.60;99.90;;;;;;1787183;79;21629;-74
2022/06/08 00:18:44;;;;;;;5.33;2.15;;;27.30;99.90;;;;;;1735645;80;21240;-72
2022/06/08 00:21:19;;;;;;;7.05;2.42;;;27.40;99.90;;;;;;1773129;79;21645;-72
2022/06/08 00:23:53;;;;;;;6.25;2.72;;;27.50;99.90;;;;;;1780850;80;21096;-73
2022/06/08 00:26:27;;;;;;;6.62;2.58;;;27.50;99.90;;;;;;1796016;79;21128;-72
2022/06/08 00:28:57;;;;;;;4.65;2.00;;;27.40;99.90;;;;;;1772352;80;21174;-72
2022/06/08 00:31:27;;;;;;;5.92;2.67;;;27.70;99.90;;;;;;1765795;79;21197;-72
2022/06/08 00:33:59;;;;;;;5.55;2.52;;;27.70;99.90;;;;;;1771938;80;21154;-73
2022/06/08 00:36:32;;;;;;;7.53;2.67;;;27.60;99.90;;;;;;1795530;78;21133;-73
2022/06/08 00:39:03;;;;;;;8.05;2.70;;;27.70;99.90;;;;;;1774713;80;21835;-72
2022/06/08 00:41:36;;;;;;;10.35;3.00;;;27.70;99.90;;;;;;1771063;79;21128;-73
2022/06/08 00:44:09;;;;;;;5.95;2.05;;;27.40;99.90;;;;;;1813997;77;21712;-73
2022/06/08 00:46:41;;;;;;;6.78;2.58;;;27.60;99.90;;;;;;1778763;80;21677;-73
2022/06/08 00:49:14;;;;;;;8.93;2.58;;;27.50;99.90;;;;;;1760982;80;21191;-71
2022/06/08 00:51:48;;;;;;;6.03;2.45;;;27.40;99.90;;;;;;1749570;80;21184;-73
2022/06/08 00:54:21;;;;;;;6.25;2.55;;;27.40;99.90;;;;;;1768319;79;21772;-73
2022/06/08 00:56:54;;;;;;;7.55;2.55;;;27.50;99.90;;;;;;1777418;80;21159;-72
2022/06/08 00:59:28;;;;;;;6.83;2.30;;;27.60;99.90;;;;;;1785267;78;21206;-73
2022/06/08 01:02:00;;;;;;;5.25;2.22;;;27.60;99.90;;;;;;1796603;79;21426;-73
2022/06/08 01:04:34;;;;;;;6.50;1.70;;;27.90;99.90;;;;;;1785760;79;21789;-74
2022/06/08 01:07:06;;;;;;;7.30;2.20;;;27.70;99.90;;;;;;1735737;80;21252;-74
2022/06/08 01:09:41;;;;;;;7.10;1.87;;;27.70;99.90;;;;;;1793995;77;21151;-78
2022/06/08 01:12:18;;;;;;;6.20;2.10;;;27.90;99.90;;;;;;1763487;80;21162;-72
2022/06/08 01:14:51;;;;;;;3.72;1.82;;;27.80;99.90;;;;;;1759982;80;21174;-71
2022/06/08 01:17:24;;;;;;;8.05;2.20;;;27.80;99.90;;;;;;1820881;77;21176;-71
2022/06/08 01:19:54;;;;;;;4.85;1.72;;;28.00;99.90;;;;;;1836592;77;21213;-71
2022/06/08 01:22:28;;;;;;;6.53;1.80;;;28.30;99.90;;;;;;1823880;77;21199;-71
2022/06/08 01:25:01;;;;;;;3.00;1.98;;;28.40;99.90;;;;;;1807840;78;21245;-70
2022/06/08 01:27:34;;;;;;;4.28;1.95;;;28.40;99.90;;;;;;1826422;77;21883;-70
2022/06/08 01:30:15;;;;;;;4.72;1.80;;;28.20;99.90;;;;;;1788992;78;21180;-69
2022/06/08 01:32:50;;;;;;;5.65;2.08;;;28.20;99.90;;;;;;1801299;78;21211;-71
2022/06/08 01:38:19;;;;;;;5.70;1.67;;;28.20;99.90;;;;;;1753603;81;21106;-73
2022/06/08 01:40:56;;;;;;;5.62;1.90;;;28.20;99.90;;;;;;1751515;81;21259;-71
2022/06/08 01:43:29;;;;;;;4.37;1.70;;;28.70;99.90;;;;;;1739441;81;21169;-72
2022/06/08 01:46:05;;;;;;;2.83;1.37;;;28.40;99.90;;;;;;1737902;81;21244;-71
2022/06/08 01:48:40;;;;;;;6.87;1.75;;;28.60;99.90;;;;;;1742595;81;21249;-72
2022/06/08 01:51:18;;;;;;;5.53;2.02;;;28.70;99.90;;;;;;1698346;82;21731;-73
2022/06/08 01:53:53;;;;;;;4.12;1.80;;;28.70;99.90;;;;;;1752248;81;21275;-73
2022/06/08 01:56:24;;;;;;;6.97;1.67;;;28.70;99.90;;;;;;1758268;81;21248;-71
2022/06/08 01:58:56;;;;;;;5.97;1.72;;;29.00;99.90;;;;;;1756911;78;21282;-73
2022/06/08 02:01:29;;;;;;;4.72;1.60;;;29.10;99.90;;;;;;1755046;79;21311;-71
2022/06/08 02:04:03;;;;;;;3.40;1.37;;;29.10;99.90;;;;;;1748475;80;21189;-73
2022/06/08 02:06:36;;;;;;;2.22;1.35;;;29.10;99.90;;;;;;1740319;81;21295;-71
2022/06/08 02:09:09;;;;;;;3.15;1.30;;;29.10;99.90;;;;;;1774120;78;21722;-72
2022/06/08 02:11:43;;;;;;;3.27;1.40;;;29.10;99.90;;;;;;1742407;81;21165;-72
2022/06/08 02:14:16;;;;;;;9.08;2.15;;;29.10;99.90;;;;;;1775398;79;21707;-72
2022/06/08 02:16:50;;;;;;;6.17;1.40;;;29.30;99.90;;;;;;1740790;81;21630;-71
2022/06/08 02:19:22;;;;;;;4.08;1.27;;;29.20;99.90;;;;;;1726888;82;21214;-72
2022/06/08 02:21:55;;;;;;;3.52;1.30;;;29.60;99.90;;;;;;1763376;79;21185;-71
2022/06/08 02:24:34;;;;;;;2.33;1.10;;;29.50;99.90;;;;;;1774565;79;21209;-70
2022/06/08 02:27:07;;;;;;;4.60;1.40;;;29.50;99.90;;;;;;1795722;77;21594;-70
2022/06/08 02:29:41;;;;;;;3.05;1.10;;;29.60;99.90;;;;;;1810187;78;21656;-72
2022/06/08 02:34:46;;;;;;;3.45;1.15;;;29.70;99.90;;;;;;1804440;78;21171;-71
2022/06/08 02:37:20;;;;;;;4.03;1.65;;;29.70;99.90;;;;;;1803363;78;21146;-71
2022/06/08 02:39:54;;;;;;;3.25;1.55;;;29.80;99.90;;;;;;1809866;78;21166;-71
2022/06/08 02:42:27;;;;;;;5.45;1.50;;;29.80;99.90;;;;;;1804735;78;21146;-70
2022/06/08 02:45:01;;;;;;;3.60;1.52;;;30.00;99.90;;;;;;1790511;78;21653;-71
2022/06/08 02:47:37;;;;;;;4.00;1.45;;;30.10;99.90;;;;;;1793414;78;21128;-72
2022/06/08 02:50:10;;;;;;;5.70;1.70;;;30.20;99.90;;;;;;1795315;79;21146;-70
2022/06/08 02:52:43;;;;;;;5.92;1.82;;;29.80;99.90;;;;;;1793343;78;21220;-70
2022/06/08 02:55:17;;;;;;;5.75;1.77;;;30.30;99.90;;;;;;1793524;79;21185;-71
2022/06/08 02:57:49;;;;;;;4.33;1.62;;;30.10;99.90;;;;;;1792120;79;21146;-70
2022/06/08 03:00:23;;;;;;;4.60;2.25;;;30.50;99.90;;;;;;1808649;78;21647;-70
2022/06/08 03:02:56;;;;;;;4.85;1.80;;;30.20;99.90;;;;;;1793928;78;21183;-71
2022/06/08 03:05:30;;;;;;;4.10;1.45;;;30.20;99.90;;;;;;1793117;77;21586;-70
2022/06/08 03:08:05;;;;;;;2.92;1.27;;;30.50;99.90;;;;;;1809048;78;21630;-71
2022/06/08 03:10:38;;;;;;;3.70;1.40;;;30.50;99.90;;;;;;1812159;77;21177;-71
2022/06/08 03:13:12;;;;;;;3.90;1.37;;;30.60;99.90;;;;;;1811065;77;21278;-70
2022/06/08 03:15:45;;;;;;;4.58;1.50;;;30.20;99.90;;;;;;1798976;77;21676;-69
2022/06/08 03:18:16;;;;;;;3.30;1.47;;;30.10;99.90;;;;;;1786660;78;21178;-69
2022/06/08 03:20:48;;;;;;;5.47;1.30;;;30.10;99.90;;;;;;1788356;78;21621;-70
2022/06/08 03:23:19;;;;;;;3.35;1.27;;;30.10;99.90;;;;;;1783659;79;21515;-70
2022/06/08 03:25:51;;;;;;;4.97;1.55;;;30.30;99.90;;;;;;1787016;78;21111;-69
2022/06/08 03:28:22;;;;;;;5.25;1.42;;;30.30;99.90;;;;;;1781354;79;21698;-70
2022/06/08 03:30:54;;;;;;;4.60;1.20;;;30.30;99.90;;;;;;1791932;78;21154;-70
2022/06/08 03:33:24;;;;;;;4.00;1.12;;;30.50;99.90;;;;;;1787938;79;21116;-70
2022/06/08 03:35:59;;;;;;;2.92;1.12;;;30.80;99.90;;;;;;1789718;79;21260;-70
2022/06/08 03:38:30;;;;;;;4.60;0.93;;;30.50;99.90;;;;;;1795713;78;21661;-71
2022/06/08 03:41:01;;;;;;;1.92;0.80;;;30.50;99.90;;;;;;1792658;78;21205;-70
2022/06/08 03:43:32;;;;;;;4.75;1.07;;;30.50;99.90;;;;;;1778346;79;21185;-70
2022/06/08 03:46:04;;;;;;;3.05;1.20;;;30.80;99.90;;;;;;1790977;79;21095;-72
2022/06/08 03:48:37;;;;;;;2.85;1.30;;;30.70;99.90;;;;;;1795945;79;21169;-70
2022/06/08 03:51:09;;;;;;;3.60;1.00;;;31.20;99.90;;;;;;1798926;79;21095;-70
2022/06/08 03:53:42;;;;;;;3.45;1.22;;;31.10;99.90;;;;;;1782353;79;21112;-69
2022/06/08 03:56:16;;;;;;;6.22;1.30;;;31.50;99.90;;;;;;1783041;79;21556;-70
2022/06/08 03:58:51;;;;;;;2.33;1.10;;;31.40;99.90;;;;;;1790788;79;21642;-70
2022/06/08 04:01:22;;;;;;;3.67;1.12;;;31.40;99.90;;;;;;1796553;79;21132;-69
2022/06/08 04:03:54;;;;;;;2.65;1.10;;;31.90;99.90;;;;;;1802800;79;21253;-72
2022/06/08 04:06:34;;;;;;;6.10;1.35;;;31.80;99.90;;;;;;1785102;79;21229;-70
2022/06/08 04:09:05;;;;;;;2.75;1.00;;;31.90;99.90;;;;;;1761670;79;21223;-69
2022/06/08 04:11:36;;;;;;;3.45;1.10;;;31.90;99.90;;;;;;1802345;79;21164;-71
2022/06/08 04:14:07;;;;;;;2.37;0.95;;;32.30;99.90;;;;;;1777677;79;21603;-69
2022/06/08 04:16:38;;;;;;;2.40;1.10;;;32.20;99.90;;;;;;1786909;79;21191;-69
2022/06/08 04:19:09;;;;;;;3.40;1.32;;;32.20;99.90;;;;;;1777421;79;21100;-70
2022/06/08 04:21:45;;;;;;;3.87;1.20;;;32.10;99.90;;;;;;1768684;80;21232;-71
2022/06/08 04:24:18;;;;;;;4.05;1.62;;;32.10;99.90;;;;;;1787398;79;21211;-70
2022/06/08 04:26:50;;;;;;;4.25;1.10;;;32.20;99.90;;;;;;1794966;79;21087;-71
2022/06/08 04:29:21;;;;;;;2.10;1.10;;;32.30;99.90;;;;;;1768328;79;21149;-70
2022/06/08 04:31:52;;;;;;;3.10;1.30;;;32.40;99.90;;;;;;1780104;79;21170;-69
2022/06/08 04:34:22;;;;;;;2.30;1.15;;;32.70;99.90;;;;;;1794460;79;21556;-73
2022/06/08 04:36:53;;;;;;;3.52;1.30;;;32.70;99.90;;;;;;1776959;79;21273;-69
2022/06/08 04:39:25;;;;;;;4.85;1.35;;;32.50;99.90;;;;;;1778462;80;21147;-71
2022/06/08 04:41:56;;;;;;;3.92;1.67;;;32.20;99.90;;;;;;1794790;79;21211;-71
2022/06/08 04:44:28;;;;;;;4.83;1.47;;;32.00;99.90;;;;;;1788961;79;21107;-70
2022/06/08 04:47:02;;;;;;;4.22;1.50;;;31.90;99.90;;;;;;1803788;79;21189;-71
2022/06/08 04:49:33;;;;;;;3.30;1.10;;;32.20;99.90;;;;;;1776694;79;21590;-69
2022/06/08 04:52:05;;;;;;;5.33;1.47;;;32.20;99.90;;;;;;1789313;79;21126;-84
2022/06/08 04:54:36;;;;;;;3.90;1.30;;;31.80;99.90;;;;;;1773462;80;21110;-83
2022/06/08 04:57:08;;;;;;;4.37;1.72;;;32.20;99.90;;;;;;1785455;79;21682;-84
2022/06/08 04:59:40;;;;;;;3.25;1.30;;;31.90;99.90;;;;;;1794401;79;21119;-84
2022/06/08 05:02:11;;;;;;;3.17;1.00;;;31.80;99.90;;;;;;1794312;79;21103;-84
2022/06/08 05:04:42;;;;;;;2.33;1.27;;;31.90;99.90;;;;;;1765155;80;21404;-85
2022/06/08 05:07:16;;;;;;;5.60;1.92;;;31.90;99.90;;;;;;1758671;80;21732;-86
2022/06/08 05:09:47;;;;;;;4.28;1.82;;;32.20;99.90;;;;;;1778416;79;21272;-84
2022/06/08 05:12:18;;;;;;;5.35;2.00;;;32.10;99.90;;;;;;1779845;79;21119;-86
2022/06/08 05:14:49;;;;;;;3.45;1.45;;;32.00;99.90;;;;;;1779580;79;21162;-84
2022/06/08 05:17:20;;;;;;;4.83;1.95;;;32.00;99.90;;;;;;1778478;80;21166;-85
2022/06/08 05:19:51;;;;;;;5.08;1.80;;;32.00;99.90;;;;;;1780481;79;21170;-85
2022/06/08 05:22:22;;;;;;;3.92;1.47;;;32.10;99.90;;;;;;1779152;80;21213;-84
2022/06/08 05:24:55;;;;;;;3.58;1.25;;;32.00;99.90;;;;;;1785694;79;21114;-85
2022/06/08 05:27:35;;;;;;;3.87;1.32;;;31.90;99.90;;;;;;1784281;79;21178;-85
2022/06/08 05:30:10;;;;;;;3.45;1.10;;;32.30;99.90;;;;;;1815434;79;21264;-85
2022/06/08 05:32:42;;;;;;;5.40;1.50;;;32.30;99.90;;;;;;1781493;79;21174;-85
2022/06/08 05:35:13;;;;;;;4.30;1.47;;;32.00;99.90;;;;;;1780963;79;21195;-84
2022/06/08 05:37:47;;;;;;;4.25;1.85;;;31.90;99.90;;;;;;1780183;79;21671;-84
2022/06/08 05:40:18;;;;;;;3.55;1.70;;;31.90;99.90;;;;;;1783258;78;21167;-84
2022/06/08 05:42:49;;;;;;;3.22;1.57;;;31.90;99.90;;;;;;1814984;78;21225;-84
2022/06/08 05:45:23;;;;;;;4.10;1.92;;;32.00;99.90;;;;;;1787436;78;21201;-84
2022/06/08 05:47:57;;;;;;;3.60;1.83;;;32.10;99.90;;;;;;1792952;78;21244;-85
2022/06/08 05:50:29;;;;;;;4.30;1.80;;;32.00;99.90;;;;;;1792011;78;21626;-84
2022/06/08 05:53:00;;;;;;;4.40;1.80;;;31.90;99.90;;;;;;1789979;78;21166;-84
2022/06/08 05:55:34;;;;;;;3.65;1.90;;;31.80;99.90;;;;;;1810189;78;21634;-71
2022/06/08 05:58:05;;;;;;;3.70;1.67;;;32.10;99.90;;;;;;1785671;79;21172;-72
2022/06/08 06:00:41;;;;;;;6.08;2.50;;;32.00;99.90;;;;;;1786046;78;21663;-73
2022/06/08 06:03:13;;;;;;;3.45;1.42;;;32.00;99.90;;;;;;1797118;78;21197;-71
2022/06/08 06:05:47;;;;;;;6.67;1.90;;;31.70;99.90;;;;;;1792124;78;21240;-70
2022/06/08 06:08:34;;;;;;;2.67;1.60;;;32.00;99.90;;;;;;1803751;78;21162;-71
2022/06/08 06:11:15;;;;;;;;;;;;;;;;;;;;;
2022/06/08 06:13:44;;;;;;;6.53;1.85;;;31.90;99.90;;;;;;1759297;80;21653;-70
2022/06/08 06:16:15;;;;;;;3.58;1.40;;;32.00;99.90;;;;;;1798928;78;21095;-71
2022/06/08 06:18:47;;;;;;;5.10;1.25;;;32.30;99.90;;;;;;1792904;78;21936;-68
2022/06/08 06:21:25;;;;;;;4.12;1.25;;;32.20;99.90;;;;;;1787632;78;21648;-69
2022/06/08 06:23:56;;;;;;;3.25;1.30;;;32.10;99.90;;;;;;1798240;78;21224;-69
2022/06/08 06:26:29;;;;;;;6.42;1.67;;;32.10;99.90;;;;;;1788457;78;21598;-71
2022/06/08 06:29:02;;;;;;;4.10;1.87;;;32.10;99.90;;;;;;1746153;80;21155;-71
2022/06/08 06:31:37;;;;;;;4.53;1.87;;;32.00;99.90;;;;;;1786920;78;21113;-70
2022/06/08 06:34:10;;;;;;;5.22;1.50;;;32.10;99.90;;;;;;1785789;78;21646;-70
2022/06/08 06:36:41;;;;;;;3.85;1.50;;;32.10;99.90;;;;;;1788257;78;21083;-69
2022/06/08 06:39:13;;;;;;;3.75;1.70;;;31.90;99.90;;;;;;1803235;78;21123;-69
2022/06/08 06:41:46;;;;;;;4.40;1.60;;;32.00;99.90;;;;;;1788689;78;21696;-71
2022/06/08 06:44:17;;;;;;;3.27;1.55;;;31.90;99.90;;;;;;1808061;78;21191;-69
2022/06/08 06:46:48;;;;;;;5.80;2.00;;;32.10;99.90;;;;;;1788123;78;21622;-70
2022/06/08 06:49:20;;;;;;;6.47;1.62;;;32.20;99.90;;;;;;1790143;78;21638;-70
2022/06/08 06:51:58;;;;;;;7.00;1.77;;;32.00;99.90;;;;;;1749506;80;21761;-70
2022/06/08 06:54:29;;;;;;;4.58;1.77;;;31.90;99.90;;;;;;1750995;80;21242;-70
2022/06/08 06:57:00;;;;;;;4.22;2.02;;;31.80;99.90;;;;;;1731618;81;21231;-70
2022/06/08 06:59:31;;;;;;;3.45;1.70;;;31.90;99.90;;;;;;1782703;79;21095;-70
2022/06/08 07:02:08;;;;;;;3.22;1.90;;;32.10;99.90;;;;;;1761530;80;21702;-71
2022/06/08 07:04:40;;;;;;;3.85;1.65;;;32.00;99.90;;;;;;1802217;78;21118;-70
2022/06/08 07:07:11;;;;;;;2.83;1.60;;;32.30;99.90;;;;;;1787822;78;21204;-70
2022/06/08 07:09:43;;;;;;;4.40;1.60;;;32.10;99.90;;;;;;1786231;78;21164;-71
2022/06/08 07:12:15;;;;;;;3.52;1.80;;;32.30;99.90;;;;;;1796643;78;21171;-70
2022/06/08 07:14:46;;;;;;;3.27;1.30;;;32.30;99.90;;;;;;1796377;78;21178;-71
2022/06/08 07:17:16;;;;;;;2.62;1.37;;;32.30;99.90;;;;;;1797072;78;21157;-71
2022/06/08 07:19:48;;;;;;;3.55;1.80;;;32.60;99.90;;;;;;1794597;78;21977;-71
2022/06/08 07:22:19;;;;;;;3.98;1.95;;;32.50;99.90;;;;;;1785806;78;21111;-70
2022/06/08 07:24:54;;;;;;;3.98;1.72;;;32.40;99.90;;;;;;1794900;78;21160;-71
2022/06/08 07:27:26;;;;;;;3.37;1.65;;;32.40;99.90;;;;;;1799926;78;21595;-71
2022/06/08 07:29:57;;;;;;;3.40;1.45;;;32.40;99.90;;;;;;1790812;78;21224;-70
2022/06/08 07:32:29;;;;;;;3.33;1.55;;;32.30;99.90;;;;;;1796574;78;21145;-71
2022/06/08 07:35:02;;;;;;;6.00;1.82;;;32.20;99.90;;;;;;1798174;78;21202;-69
2022/06/08 07:37:33;;;;;;;4.12;1.47;;;32.40;99.90;;;;;;1796679;78;21165;-71
2022/06/08 07:40:05;;;;;;;3.45;1.45;;;32.20;99.90;;;;;;1797944;78;21317;-71
2022/06/08 07:42:41;;;;;;;3.40;1.45;;;32.30;99.90;;;;;;1810144;77;21114;-73
2022/06/08 07:45:13;;;;;;;3.15;1.42;;;32.10;99.90;;;;;;1806605;78;21225;-73
2022/06/08 07:50:17;;;;;;;3.85;1.87;;;32.30;99.90;;;;;;1797635;80;21093;-72
2022/06/08 07:52:50;;;;;;;3.77;1.90;;;32.60;99.90;;;;;;1799458;80;21189;-69
2022/06/08 07:55:22;;;;;;;3.98;1.52;;;32.60;99.90;;;;;;1796642;78;21641;-71
2022/06/08 07:57:55;;;;;;;3.55;1.72;;;32.60;99.90;;;;;;1797875;80;21096;-71
2022/06/08 08:00:26;;;;;;;3.72;1.80;;;32.50;99.90;;;;;;1797810;78;21271;-70
2022/06/08 08:02:57;;;;;;;5.03;1.70;;;32.20;99.90;;;;;;1797416;80;21602;-71
2022/06/08 08:05:33;;;;;;;4.30;1.80;;;32.20;99.90;;;;;;1796097;80;21135;-70
2022/06/08 08:08:06;;;;;;;2.83;1.50;;;32.10;99.90;;;;;;1778186;80;21245;-70
2022/06/08 08:10:37;;;;;;;4.28;1.90;;;32.00;99.90;;;;;;1788173;80;21127;-71
2022/06/08 08:13:13;;;;;;;3.22;1.37;;;32.20;99.90;;;;;;1787215;78;21194;-71
2022/06/08 08:15:43;;;;;;;3.98;1.77;;;32.20;99.90;;;;;;1797314;78;21620;-70
2022/06/08 08:18:16;;;;;;;4.72;1.65;;;32.00;99.90;;;;;;1782875;80;21133;-71
2022/06/08 08:20:50;;;;;;;3.02;1.52;;;32.00;99.90;;;;;;1784869;80;21108;-71
2022/06/08 08:23:21;;;;;;;3.40;1.52;;;32.20;99.90;;;;;;1786470;80;21617;-71
2022/06/08 08:25:52;;;;;;;4.05;1.72;;;32.00;99.90;;;;;;1785499;80;21151;-71
2022/06/08 08:28:26;;;;;;;10.30;1.72;;;31.90;99.90;;;;;;1785676;78;21186;-72
2022/06/08 08:31:04;;;;;;;4.95;2.08;;;31.80;99.90;;;;;;1780363;80;21237;-71
2022/06/08 08:33:37;;;;;;;4.50;1.20;;;31.90;99.90;;;;;;1785984;80;21219;-71
2022/06/08 08:36:08;;;;;;;4.42;1.30;;;31.80;99.90;;;;;;1786451;80;21180;-72
2022/06/08 08:38:40;;;;;;;3.17;1.40;;;31.80;99.60;;;;;;1778175;78;21122;-71
2022/06/08 08:42:20;;;;;;;4.15;2.00;;;31.90;99.90;;;;;;1796520;78;22068;-72
2022/06/08 08:43:47;;;;;;;;;;;32.00;99.90;;;;;;1787959;79;21173;-71
2022/06/08 08:46:20;;;;;;;5.17;2.10;;;31.80;99.90;;;;;;1777430;80;20273;-71
2022/06/08 08:48:54;;;;;;;4.22;1.75;;;32.00;99.90;;;;;;1781021;80;21744;-70
2022/06/08 08:51:32;;;;;;;3.90;1.30;;;32.10;99.90;;;;;;1776013;78;21165;-71
2022/06/08 08:54:03;;;;;;;3.20;1.60;;;32.10;99.90;;;;;;1790204;80;21621;-73
2022/06/08 08:56:40;;;;;;;6.62;1.85;;;31.70;99.90;;;;;;1786569;78;21255;-72
2022/06/08 08:59:13;;;;;;;3.55;1.80;;;32.00;99.60;;;;;;1808546;78;21891;-73
2022/06/08 09:01:46;;;;;;;4.40;1.42;;;31.80;99.80;;;;;;1792603;78;21173;-71
2022/06/08 09:04:19;;;;;;;4.15;1.67;;;32.10;99.90;;;;;;1800352;78;21569;-73
2022/06/08 09:06:52;;;;;;;6.28;1.65;;;31.90;99.90;;;;;;1815445;78;21187;-71
2022/06/08 09:09:25;;;;;;;3.87;1.80;;;31.70;99.90;;;;;;1794461;78;21579;-72
2022/06/08 09:11:56;;;;;;;4.50;1.32;;;32.00;99.80;;;;;;1794582;78;21559;-71
2022/06/08 09:14:34;;;;;;;2.95;1.70;;;31.80;99.50;;;;;;1768044;80;21912;-71
2022/06/08 09:17:07;;;;;;;4.17;1.40;;;31.80;99.90;;;;;;1801934;78;21539;-70
2022/06/08 09:19:43;;;;;;;2.58;1.37;;;31.90;99.90;;;;;;1787063;78;21164;-70
2022/06/08 09:22:13;;;;;;;3.75;1.72;;;31.80;99.90;;;;;;1789762;78;21103;-71
2022/06/08 09:24:46;;;;;;;5.50;1.85;;;31.90;99.90;;;;;;1765913;80;21388;-72
2022/06/08 09:27:18;;;;;;;4.12;2.02;;;31.90;99.90;;;;;;1749408;80;21170;-71
2022/06/08 09:29:53;;;;;;;5.08;1.90;;;31.80;99.90;;;;;;1721730;83;21240;-72
2022/06/08 09:32:27;;;;;;;3.47;1.77;;;31.80;99.90;;;;;;1740334;81;21689;-72
2022/06/08 09:35:04;;;;;;;5.22;2.17;;;31.60;99.90;;;;;;1799237;78;21167;-71
2022/06/08 09:37:36;;;;;;;4.10;2.15;;;31.80;99.90;;;;;;1786402;78;21264;-71
2022/06/08 09:40:36;;;;;;;4.95;1.95;;;31.70;99.90;;;;;;1769517;80;21200;-72
2022/06/08 09:42:47;;;;;;;6.47;1.85;;;31.60;99.90;;;;;;1796839;78;21176;-71
2022/06/08 09:45:21;;;;;;;5.03;1.92;;;31.70;99.90;;;;;;1792825;79;21148;-72
2022/06/08 09:53:21;;;;;;;6.60;2.12;;;31.50;99.90;;;;;;1746554;81;21175;-72
2022/06/08 09:55:57;;;;;;;3.80;1.85;;;31.60;99.90;;;;;;1735736;82;21165;-71
2022/06/08 09:58:31;;;;;;;6.28;1.80;;;31.50;99.90;;;;;;1739839;81;21222;-72
2022/06/08 10:01:05;;;;;;;4.87;1.87;;;31.40;99.90;;;;;;1796703;78;21700;-70
2022/06/08 10:03:46;;;;;;;6.08;2.15;;;31.30;99.90;;;;;;1763512;80;21257;-83
2022/06/08 10:06:20;;;;;;;4.42;1.77;;;31.40;99.90;;;;;;1781641;78;21076;-82
2022/06/08 10:08:52;;;;;;;5.28;2.15;;;31.50;99.90;;;;;;1789581;78;21366;-82
2022/06/08 10:11:36;;;;;;;4.70;1.57;;;31.40;99.90;;;;;;1791297;78;21199;-81
2022/06/08 10:14:00;;;;;;;4.15;1.70;;;31.30;99.90;;;;;;1786436;78;21128;-81
2022/06/08 10:16:33;;;;;;;4.62;1.90;;;31.40;99.90;;;;;;1782039;78;21216;-84
2022/06/08 10:19:07;;;;;;;5.72;1.80;;;31.30;99.90;;;;;;1798272;78;21178;-84
2022/06/08 10:21:41;;;;;;;3.47;1.70;;;31.50;99.90;;;;;;1789241;78;21144;-84
2022/06/08 10:24:14;;;;;;;4.22;1.70;;;31.20;99.90;;;;;;1732933;80;21173;-84
2022/06/08 10:26:46;;;;;;;5.62;1.77;;;31.30;99.90;;;;;;1760297;80;21244;-84
2022/06/08 10:29:17;;;;;;;8.40;2.08;;;31.20;99.90;;;;;;1730794;82;21141;-82
2022/06/08 10:31:54;;;;;;;4.10;1.67;;;31.30;99.90;;;;;;1732239;83;21125;-82
2022/06/08 10:34:28;;;;;;;3.87;1.77;;;31.50;99.90;;;;;;1756943;80;21224;-83
2022/06/08 10:37:05;;;;;;;5.42;1.87;;;31.50;99.90;;;;;;1729808;83;21261;-82
2022/06/08 10:39:44;;;;;;;5.08;2.10;;;31.30;99.90;;;;;;1757618;81;21238;-82
2022/06/08 10:44:52;;;;;;;4.87;1.87;;;31.20;99.90;;;;;;1750746;80;21794;-84
2022/06/08 10:47:28;;;;;;;5.05;1.82;;;31.10;99.90;;;;;;1737003;82;21186;-83
2022/06/08 10:50:00;;;;;;;5.70;1.80;;;31.10;99.90;;;;;;1721047;83;21215;-83
2022/06/08 10:52:34;;;;;;;7.85;2.12;;;31.00;99.90;;;;;;1736834;82;21132;-83
2022/06/08 10:55:07;;;;;;;5.40;1.70;;;31.20;99.90;;;;;;1749687;82;21208;-83
2022/06/08 10:57:42;;;;;;;3.42;1.70;;;31.00;99.90;;;;;;1734932;82;21288;-84
2022/06/08 11:00:15;;;;;;;4.95;2.00;;;31.10;99.90;;;;;;1719411;83;21151;-85
2022/06/08 11:03:10;;;;;;;5.28;2.25;;;31.00;99.90;;;;;;1736954;82;21249;-83
2022/06/08 11:05:47;;;;;;;3.98;1.80;;;31.20;99.90;;;;;;1786186;80;21205;-84
2022/06/08 11:08:20;;;;;;;4.42;1.90;;;30.90;99.90;;;;;;1798994;79;21146;-85
2022/06/08 11:10:54;;;;;;;4.17;2.12;;;31.00;99.90;;;;;;1806816;79;21190;-83
2022/06/08 11:13:29;;;;;;;6.55;2.35;;;31.20;99.90;;;;;;1810158;79;21622;-83
2022/06/08 11:16:02;;;;;;;5.87;2.25;;;31.00;99.90;;;;;;1808160;78;21633;-84
2022/06/08 11:18:34;;;;;;;6.10;2.60;;;31.00;99.90;;;;;;1786532;79;21905;-83
2022/06/08 11:21:06;;;;;;;8.68;2.45;;;31.00;99.90;;;;;;1760949;79;21226;-84
2022/06/08 11:23:40;;;;;;;6.58;2.40;;;31.10;99.90;;;;;;1780367;80;21194;-83
2022/06/08 11:26:23;;;;;;;8.10;2.65;;;31.20;99.90;;;;;;1781224;80;21123;-83
2022/06/08 11:28:53;;;;;;;6.05;2.85;;;31.10;99.90;;;;;;1780924;80;21619;-83
2022/06/08 11:31:26;;;;;;;5.87;2.87;;;31.20;99.90;;;;;;1781624;80;21099;-83
2022/06/08 11:34:00;;;;;;;8.38;3.00;;;31.20;99.90;;;;;;1781779;80;21716;-83
2022/06/08 11:36:34;;;;;;;7.47;3.47;;;31.10;99.90;;;;;;1783050;80;21141;-83
2022/06/08 11:39:07;;;;;;;8.28;4.03;;;30.90;99.90;;;;;;1782443;80;21113;-83
2022/06/08 11:41:41;;;;;;;7.58;3.98;;;30.90;99.90;;;;;;1779616;80;21093;-84
2022/06/08 11:44:16;;;;;;;11.63;4.67;;;31.20;99.90;;;;;;1782097;80;21192;-82
2022/06/08 11:46:50;;;;;;;10.82;5.00;;;30.80;99.90;;;;;;1782277;80;21386;-83
2022/06/08 11:49:24;;;;;;;7.28;3.70;;;31.00;99.90;;;;;;1781804;80;21121;-83
2022/06/08 11:51:55;;;;;;;6.80;3.45;;;30.80;99.90;;;;;;1746085;82;21174;-85
2022/06/08 11:54:32;;;;;;;5.95;2.83;;;31.00;99.90;;;;;;1781968;80;21172;-82
2022/06/08 11:57:06;;;;;;;7.55;3.25;;;31.00;99.90;;;;;;1781739;80;21224;-84
2022/06/08 11:59:44;;;;;;;9.68;3.77;;;31.00;99.90;;;;;;1781690;80;21129;-83
2022/06/08 12:02:18;;;;;;;10.78;3.40;;;31.00;99.90;;;;;;1781771;80;21176;-82
2022/06/08 12:04:51;;;;;;;6.60;3.42;;;30.70;99.90;;;;;;1769761;80;21174;-84
2022/06/08 12:07:26;;;;;;;7.72;3.55;;;30.90;99.90;;;;;;1757602;79;21225;-83
2022/06/08 12:09:57;;;;;;;7.97;3.65;;;30.80;99.90;;;;;;1754398;82;21668;-84
2022/06/08 12:12:29;;;;;;;7.42;3.58;;;30.80;99.90;;;;;;1757186;82;21162;-84
2022/06/08 12:15:02;;;;;;;8.80;3.72;;;30.60;99.90;;;;;;1756831;82;21139;-84
2022/06/08 12:17:38;;;;;;;7.75;3.72;;;30.60;99.90;;;;;;1752839;81;21198;-84
2022/06/08 12:20:10;;;;;;;8.65;3.80;;;30.60;99.90;;;;;;1756947;81;21585;-84
2022/06/08 12:22:43;;;;;;;6.92;3.50;;;30.90;99.90;;;;;;1752225;82;21268;-85
2022/06/08 12:25:16;;;;;;;8.65;4.00;;;30.60;99.90;;;;;;1756733;81;21179;-85
2022/06/08 12:27:54;;;;;;;8.28;3.62;;;30.70;99.90;;;;;;1756943;81;21198;-83
2022/06/08 12:30:29;;;;;;;8.78;4.35;;;30.50;99.90;;;;;;1757100;82;21209;-82
2022/06/08 12:33:02;;;;;;;11.12;4.60;;;30.80;99.90;;;;;;1757414;82;21175;-83
2022/06/08 12:35:36;;;;;;;6.58;4.03;;;30.50;99.90;;;;;;1755853;81;21170;-84
2022/06/08 12:38:12;;;;;;;9.43;4.17;;;30.50;99.90;;;;;;1757072;82;21139;-84
2022/06/08 12:40:50;;;;;;;7.80;4.53;;;30.40;99.90;;;;;;1756947;80;21150;-85
2022/06/08 12:43:22;;;;;;;9.45;4.40;;;30.50;99.90;;;;;;1753354;82;21146;-83
2022/06/08 12:45:55;;;;;;;9.85;4.03;;;30.70;99.90;;;;;;1756391;82;21202;-82
2022/06/08 12:48:29;;;;;;;11.57;4.85;;;30.70;99.90;;;;;;1756264;80;21932;-84
2022/06/08 12:51:02;;;;;;;9.30;4.50;;;30.60;99.90;;;;;;1809335;79;21113;-84
2022/06/08 12:53:35;;;;;;;8.93;4.90;;;30.60;99.90;;;;;;1814052;79;21172;-84
2022/06/08 12:56:12;;;;;;;8.85;4.40;;;30.70;99.90;;;;;;1813259;79;21568;-83
2022/06/08 12:58:42;;;;;;;10.08;4.45;;;30.50;99.90;;;;;;1805585;79;21165;-82
2022/06/08 13:01:15;;;;;;;12.13;5.10;;;30.60;99.90;;;;;;1802327;79;21203;-83
2022/06/08 13:03:46;;;;;;;7.95;3.87;;;30.60;99.90;;;;;;1805254;78;21171;-83
2022/06/08 13:06:17;;;;;;;7.53;4.03;;;30.40;99.90;;;;;;1810945;78;21199;-82
2022/06/08 13:08:49;;;;;;;10.58;4.30;;;30.50;99.90;;;;;;1814110;78;21143;-83
2022/06/08 13:11:24;;;;;;;7.25;3.67;;;30.60;99.90;;;;;;1794873;78;21145;-83
2022/06/08 13:14:02;;;;;;;8.13;4.33;;;30.50;99.90;;;;;;1800990;78;21143;-84
2022/06/08 13:16:33;;;;;;;;;;;30.50;99.90;;;;;;1795337;79;21660;-83
2022/06/08 13:19:05;;;;;;;11.97;5.12;;;30.60;99.90;;;;;;1782002;79;20706;-84
2022/06/08 13:21:36;;;;;;;11.73;4.50;;;30.60;99.90;;;;;;1812632;79;21162;-84
2022/06/08 13:24:10;;;;;;;8.50;4.45;;;30.40;99.90;;;;;;1811166;79;21288;-83
2022/06/08 13:26:42;;;;;;;11.28;4.78;;;30.40;99.90;;;;;;1778627;79;21096;-83
2022/06/08 13:29:25;;;;;;;15.45;5.10;;;30.40;99.90;;;;;;1815270;79;21107;-84
2022/06/08 13:32:12;;;;;;;12.28;4.80;;;30.50;99.90;;;;;;1737758;82;21317;-82
2022/06/08 13:34:44;;;;;;;9.78;5.03;;;30.40;99.90;;;;;;1764449;79;21641;-81